createdAt,value
2018-05-08T00:01:00.271Z,85.70
2018-05-08T00:03:27.714Z,85.30
2018-05-08T00:05:55.164Z,84.60
2018-05-08T00:08:22.636Z,84.10
2018-05-08T00:10:50.090Z,83.70
2018-05-08T00:13:17.537Z,83.30
2018-05-08T00:15:44.980Z,83.20
2018-05-08T00:18:12.422Z,82.80
2018-05-08T00:20:39.882Z,82.40
2018-05-08T00:23:07.323Z,82.30
2018-05-08T00:25:35.559Z,82.00
2018-05-08T00:28:03.013Z,81.90
2018-05-08T00:30:30.490Z,81.70
2018-05-08T00:32:57.909Z,81.70
2018-05-08T00:35:25.357Z,81.70
2018-05-08T00:37:52.813Z,81.50
2018-05-08T00:40:20.258Z,81.50
2018-05-08T00:42:47.711Z,81.10
2018-05-08T00:45:15.157Z,81.10
2018-05-08T00:47:43.369Z,80.80
2018-05-08T00:50:10.841Z,80.60
2018-05-08T00:52:38.295Z,80.70
2018-05-08T00:55:05.732Z,80.70
2018-05-08T00:57:33.191Z,80.40
2018-05-08T01:00:00.647Z,80.50
2018-05-08T01:02:28.104Z,79.70
2018-05-08T01:04:55.543Z,79.70
2018-05-08T01:07:22.994Z,80.00
2018-05-08T01:09:50.441Z,79.30
2018-05-08T01:12:18.661Z,80.90
2018-05-08T01:14:46.124Z,80.90
2018-05-08T01:17:13.577Z,79.80
2018-05-08T01:19:41.034Z,78.70
2018-05-08T01:22:08.479Z,80.00
2018-05-08T01:24:35.933Z,80.00
2018-05-08T01:27:03.370Z,80.40
2018-05-08T01:29:30.804Z,80.00
2018-05-08T01:31:59.023Z,80.10
2018-05-08T01:34:26.479Z,80.20
2018-05-08T01:36:53.950Z,79.50
2018-05-08T01:39:21.403Z,79.90
2018-05-08T01:41:48.857Z,80.70
2018-05-08T01:44:16.338Z,80.80
2018-05-08T01:46:43.791Z,81.00
2018-05-08T01:49:12.767Z,80.80
2018-05-08T01:51:40.213Z,80.10
2018-05-08T01:54:07.660Z,79.50
2018-05-08T01:56:35.125Z,79.70
2018-05-08T01:59:02.587Z,80.50
2018-05-08T02:01:30.043Z,80.10
2018-05-08T02:03:57.490Z,79.80
2018-05-08T02:06:24.940Z,79.80
2018-05-08T02:08:52.406Z,79.90
2018-05-08T02:11:19.853Z,79.80
2018-05-08T02:13:47.315Z,80.00
2018-05-08T02:16:14.769Z,80.10
2018-05-08T02:18:42.212Z,80.10
2018-05-08T02:21:09.654Z,80.50
2018-05-08T02:23:37.870Z,80.60
2018-05-08T02:26:05.324Z,80.50
2018-05-08T02:28:32.775Z,80.50
2018-05-08T02:31:00.231Z,80.80
2018-05-08T02:33:27.673Z,81.10
2018-05-08T02:35:55.122Z,81.10
2018-05-08T02:38:23.326Z,81.80
2018-05-08T02:40:50.785Z,81.80
2018-05-08T02:43:18.236Z,82.00
2018-05-08T02:45:45.693Z,82.10
2018-05-08T02:48:13.149Z,82.40
2018-05-08T02:50:40.673Z,82.90
2018-05-08T02:53:08.051Z,82.50
2018-05-08T02:55:35.508Z,83.30
2018-05-08T02:58:02.976Z,82.70
2018-05-08T03:00:30.445Z,83.00
2018-05-08T03:02:57.892Z,84.00
2018-05-08T03:05:25.333Z,83.10
2018-05-08T03:07:52.788Z,83.30
2018-05-08T03:10:20.237Z,83.50
2018-05-08T03:12:48.450Z,85.10
2018-05-08T03:15:15.901Z,84.40
2018-05-08T03:17:43.341Z,84.50
2018-05-08T03:20:10.794Z,84.90
2018-05-08T03:22:38.265Z,85.50
2018-05-08T03:25:05.730Z,85.00
2018-05-08T03:27:33.174Z,84.80
2018-05-08T03:30:00.620Z,85.10
2018-05-08T03:32:28.066Z,85.10
2018-05-08T03:34:56.281Z,85.40
2018-05-08T03:37:23.732Z,85.30
2018-05-08T03:39:51.194Z,85.40
2018-05-08T03:42:18.650Z,86.30
2018-05-08T03:44:46.105Z,86.40
2018-05-08T03:47:13.553Z,86.70
2018-05-08T03:49:41.167Z,87.00
2018-05-08T03:52:09.306Z,87.50
2018-05-08T03:54:37.514Z,88.10
2018-05-08T03:57:04.966Z,88.00
2018-05-08T03:59:32.413Z,87.90
2018-05-08T04:02:11.788Z,87.10
2018-05-08T04:04:51.990Z,86.80
2018-05-08T04:07:31.442Z,86.80
2018-05-08T04:09:58.894Z,87.70
2018-05-08T04:12:26.336Z,87.30
2018-05-08T04:14:53.795Z,85.80
2018-05-08T04:17:21.259Z,86.40
2018-05-08T04:19:48.713Z,86.60
2018-05-08T04:22:16.182Z,86.50
2018-05-08T04:24:43.647Z,86.10
2018-05-08T04:27:11.105Z,85.20
2018-05-08T04:29:40.151Z,83.80
2018-05-08T04:32:07.614Z,83.80
2018-05-08T04:34:35.168Z,82.40
2018-05-08T04:37:02.614Z,81.40
2018-05-08T04:39:30.058Z,81.00
2018-05-08T04:41:58.265Z,80.90
2018-05-08T04:44:25.726Z,80.90
2018-05-08T04:46:53.212Z,81.90
2018-05-08T04:49:20.655Z,81.20
2018-05-08T04:51:48.107Z,81.30
2018-05-08T04:54:15.551Z,81.30
2018-05-08T04:56:43.026Z,80.90
2018-05-08T04:59:10.461Z,81.40
2018-05-08T05:01:37.917Z,81.60
2018-05-08T05:04:05.394Z,81.40
2018-05-08T05:06:33.610Z,81.90
2018-05-08T05:09:01.833Z,81.20
2018-05-08T05:11:29.270Z,81.20
2018-05-08T05:13:56.721Z,79.60
2018-05-08T05:16:24.163Z,79.50
2018-05-08T05:18:52.383Z,79.90
2018-05-08T05:21:19.827Z,79.90
2018-05-08T05:23:47.271Z,80.20
2018-05-08T05:26:14.716Z,80.30
2018-05-08T05:28:42.187Z,81.50
2018-05-08T05:31:09.631Z,79.80
2018-05-08T05:33:37.069Z,80.40
2018-05-08T05:36:05.306Z,78.70
2018-05-08T05:38:32.754Z,78.60
2018-05-08T05:41:00.295Z,79.10
2018-05-08T05:43:27.740Z,78.90
2018-05-08T05:45:55.184Z,77.10
2018-05-08T05:48:23.417Z,76.80
2018-05-08T05:50:50.862Z,76.80
2018-05-08T05:53:18.398Z,78.10
2018-05-08T05:55:45.787Z,75.30
2018-05-08T05:58:13.235Z,75.80
2018-05-08T06:00:40.691Z,75.40
2018-05-08T06:03:08.137Z,73.60
2018-05-08T06:05:35.595Z,74.00
2018-05-08T06:08:03.057Z,74.80
2018-05-08T06:10:30.520Z,74.70
2018-05-08T06:12:57.974Z,72.80
2018-05-08T06:15:25.419Z,72.60
2018-05-08T06:17:52.883Z,72.10
2018-05-08T06:20:20.339Z,71.70
2018-05-08T06:22:47.811Z,72.20
2018-05-08T06:25:15.263Z,71.20
2018-05-08T06:27:42.710Z,70.50
2018-05-08T06:30:10.175Z,71.10
2018-05-08T06:32:37.617Z,71.00
2018-05-08T06:35:05.083Z,71.10
2018-05-08T06:37:32.509Z,71.40
2018-05-08T06:40:00.037Z,70.80
2018-05-08T06:42:27.412Z,69.90
2018-05-08T06:44:55.645Z,70.40
2018-05-08T06:47:23.209Z,70.30
2018-05-08T06:49:50.651Z,70.10
2018-05-08T06:52:18.134Z,69.60
2018-05-08T06:54:46.398Z,68.90
2018-05-08T06:57:13.840Z,68.90
2018-05-08T06:59:41.307Z,68.60
2018-05-08T07:02:08.757Z,69.30
2018-05-08T07:04:36.201Z,68.60
2018-05-08T07:07:03.646Z,68.60
2018-05-08T07:09:31.093Z,68.90
2018-05-08T07:11:58.572Z,68.00
2018-05-08T07:14:26.042Z,67.70
2018-05-08T07:16:53.502Z,67.80
2018-05-08T07:19:20.946Z,67.20
2018-05-08T07:21:48.408Z,67.70
2018-05-08T07:24:15.859Z,66.70
2018-05-08T07:29:17.237Z,66.70
2018-05-08T07:31:44.699Z,66.10
2018-05-08T07:34:12.153Z,66.00
2018-05-08T07:36:39.614Z,65.50
2018-05-08T07:39:07.062Z,65.40
2018-05-08T07:41:34.518Z,64.90
2018-05-08T07:44:02.732Z,63.30
2018-05-08T07:46:30.955Z,62.30
2018-05-08T07:48:58.410Z,62.30
2018-05-08T07:51:25.861Z,62.00
2018-05-08T07:53:53.310Z,61.00
2018-05-08T07:56:20.762Z,60.90
2018-05-08T07:58:48.234Z,60.60
2018-05-08T08:01:15.699Z,60.00
2018-05-08T08:03:43.261Z,60.00
2018-05-08T08:06:10.638Z,61.70
2018-05-08T08:08:38.109Z,59.80
2018-05-08T08:11:06.333Z,58.60
2018-05-08T08:13:33.790Z,58.60
2018-05-08T08:16:01.239Z,58.40
2018-05-08T08:18:28.799Z,59.60
2018-05-08T08:20:56.231Z,59.10
2018-05-08T08:23:24.451Z,58.50
2018-05-08T08:25:51.921Z,58.40
2018-05-08T08:28:19.379Z,57.90
2018-05-08T08:30:46.839Z,57.60
2018-05-08T08:33:14.282Z,57.90
2018-05-08T08:35:41.734Z,57.20
2018-05-08T08:38:09.195Z,57.50
2018-05-08T08:40:36.638Z,57.20
2018-05-08T08:43:04.107Z,57.90
2018-05-08T08:45:31.564Z,57.30
2018-05-08T08:47:59.030Z,56.90
2018-05-08T08:50:26.506Z,57.50
2018-05-08T08:52:53.966Z,57.80
2018-05-08T08:55:21.427Z,57.00
2018-05-08T08:57:48.906Z,57.00
2018-05-08T09:00:16.373Z,56.50
2018-05-08T09:02:43.815Z,56.70
2018-05-08T09:05:12.035Z,56.20
2018-05-08T09:07:39.538Z,56.10
2018-05-08T09:10:07.014Z,56.00
2018-05-08T09:12:34.457Z,55.90
2018-05-08T09:15:01.958Z,55.40
2018-05-08T09:17:29.404Z,55.30
2018-05-08T09:19:56.857Z,54.30
2018-05-08T09:22:24.360Z,53.40
2018-05-08T09:24:52.260Z,53.70
2018-05-08T09:27:20.513Z,52.50
2018-05-08T09:29:47.997Z,52.40
2018-05-08T09:32:16.227Z,50.90
2018-05-08T09:34:43.682Z,50.80
2018-05-08T09:37:11.129Z,50.50
2018-05-08T09:39:38.573Z,50.80
2018-05-08T09:42:06.024Z,49.00
2018-05-08T09:44:33.494Z,48.50
2018-05-08T09:47:01.036Z,48.60
2018-05-08T09:49:28.552Z,47.10
2018-05-08T09:51:56.024Z,47.20
2018-05-08T09:54:24.275Z,45.90
2018-05-08T09:56:51.738Z,45.70
2018-05-08T09:59:19.203Z,46.00
2018-05-08T10:01:46.677Z,44.70
2018-05-08T10:04:14.901Z,43.90
2018-05-08T10:06:42.385Z,43.80
2018-05-08T10:09:09.859Z,44.40
2018-05-08T10:11:38.082Z,43.50
2018-05-08T10:14:05.544Z,43.00
2018-05-08T10:16:33.000Z,42.20
2018-05-08T10:19:00.453Z,41.10
2018-05-08T10:21:27.901Z,41.10
2018-05-08T10:23:55.430Z,41.00
2018-05-08T10:26:23.642Z,41.40
2018-05-08T10:28:51.098Z,41.40
2018-05-08T10:31:18.553Z,41.90
2018-05-08T10:33:46.006Z,40.30
2018-05-08T10:36:13.489Z,40.30
2018-05-08T10:38:41.699Z,39.10
2018-05-08T10:41:09.945Z,40.20
2018-05-08T10:43:37.396Z,39.50
2018-05-08T10:46:04.878Z,38.40
2018-05-08T10:48:32.355Z,38.60
2018-05-08T10:50:59.789Z,38.00
2018-05-08T10:53:27.251Z,37.50
2018-05-08T10:55:54.691Z,38.10
2018-05-08T10:58:22.140Z,38.30
2018-05-08T11:00:49.591Z,37.40
2018-05-08T11:03:17.057Z,36.60
2018-05-08T11:05:44.510Z,37.50
2018-05-08T11:08:11.947Z,36.90
2018-05-08T11:10:39.410Z,34.80
2018-05-08T11:13:06.862Z,35.20
2018-05-08T11:15:34.326Z,36.60
2018-05-08T11:18:01.822Z,37.80
2018-05-08T11:20:29.238Z,37.90
2018-05-08T11:22:56.683Z,37.20
2018-05-08T11:25:24.148Z,36.90
2018-05-08T11:27:51.608Z,37.50
2018-05-08T11:30:19.061Z,37.20
2018-05-08T11:32:46.535Z,38.60
2018-05-08T11:35:13.986Z,39.00
2018-05-08T11:37:41.442Z,38.70
2018-05-08T11:40:08.898Z,39.70
2018-05-08T11:42:36.347Z,37.20
2018-05-08T11:45:03.818Z,37.20
2018-05-08T11:47:31.270Z,37.20
2018-05-08T11:49:58.747Z,36.60
2018-05-08T11:52:26.175Z,36.70
2018-05-08T11:54:53.624Z,36.10
2018-05-08T11:57:21.086Z,33.90
2018-05-08T11:59:48.533Z,35.20
2018-05-08T12:02:15.992Z,35.10
2018-05-08T12:04:43.443Z,33.80
2018-05-08T12:07:10.898Z,34.60
2018-05-08T12:09:38.341Z,36.50
2018-05-08T12:12:06.563Z,37.40
2018-05-08T12:14:34.045Z,37.40
2018-05-08T12:17:01.468Z,36.70
2018-05-08T12:19:28.909Z,37.20
2018-05-08T12:21:56.518Z,37.10
2018-05-08T12:24:23.818Z,37.70
2018-05-08T12:26:51.258Z,37.30
2018-05-08T12:29:19.468Z,38.10
2018-05-08T12:31:46.927Z,38.10
2018-05-08T12:34:14.378Z,37.90
2018-05-08T12:36:41.851Z,37.80
2018-05-08T12:39:09.301Z,36.30
2018-05-08T12:41:36.747Z,36.20
2018-05-08T12:44:04.197Z,36.70
2018-05-08T12:46:31.666Z,35.70
2018-05-08T12:48:59.117Z,34.90
2018-05-08T12:51:26.569Z,34.20
2018-05-08T12:53:54.031Z,34.50
2018-05-08T12:56:21.483Z,34.20
2018-05-08T12:58:48.934Z,33.20
2018-05-08T13:01:16.402Z,33.10
2018-05-08T13:03:43.857Z,33.70
2018-05-08T13:06:11.317Z,34.50
2018-05-08T13:08:38.770Z,33.80
2018-05-08T13:11:06.231Z,33.30
2018-05-08T13:13:33.692Z,34.40
2018-05-08T13:16:01.164Z,35.70
2018-05-08T13:18:28.620Z,35.80
2018-05-08T13:20:56.106Z,35.80
2018-05-08T13:23:23.590Z,36.10
2018-05-08T13:25:51.061Z,36.90
2018-05-08T13:28:18.490Z,37.30
2018-05-08T13:30:46.718Z,35.50
2018-05-08T13:33:14.164Z,35.50
2018-05-08T13:35:41.622Z,36.20
2018-05-08T13:38:09.083Z,36.40
2018-05-08T13:40:36.539Z,35.80
2018-05-08T13:43:03.985Z,36.80
2018-05-08T13:45:31.441Z,36.00
2018-05-08T13:47:58.907Z,35.10
2018-05-08T13:50:26.378Z,35.10
2018-05-08T13:52:53.851Z,36.80
2018-05-08T13:55:21.344Z,37.40
2018-05-08T13:57:48.825Z,37.90
2018-05-08T14:00:16.273Z,38.00
2018-05-08T14:02:43.729Z,38.40
2018-05-08T14:05:11.188Z,38.50
2018-05-08T14:07:38.645Z,38.10
2018-05-08T14:10:06.102Z,37.50
2018-05-08T14:12:33.543Z,37.70
2018-05-08T14:15:01.773Z,38.00
2018-05-08T14:17:29.222Z,37.90
2018-05-08T14:19:56.670Z,38.00
2018-05-08T14:22:24.114Z,38.30
2018-05-08T14:24:51.646Z,37.20
2018-05-08T14:27:19.007Z,37.30
2018-05-08T14:29:46.466Z,36.80
2018-05-08T14:32:13.918Z,36.80
2018-05-08T14:34:42.146Z,36.00
2018-05-08T14:37:10.120Z,35.90
2018-05-08T14:39:37.557Z,36.40
2018-05-08T14:42:05.766Z,38.00
2018-05-08T14:44:33.231Z,37.40
2018-05-08T14:47:00.677Z,36.90
2018-05-08T14:49:28.216Z,37.40
2018-05-08T14:51:55.604Z,36.30
2018-05-08T14:54:23.820Z,35.40
2018-05-08T14:56:51.304Z,35.30
2018-05-08T14:59:18.771Z,36.30
2018-05-08T15:01:46.223Z,36.50
2018-05-08T15:04:13.732Z,36.10
2018-05-08T15:06:41.134Z,34.50
2018-05-08T15:09:08.586Z,33.90
2018-05-08T15:11:36.036Z,34.90
2018-05-08T15:14:03.514Z,34.40
2018-05-08T15:16:30.983Z,34.60
2018-05-08T15:18:58.431Z,34.00
2018-05-08T15:21:25.893Z,33.80
2018-05-08T15:23:53.330Z,33.60
2018-05-08T15:26:20.766Z,33.70
2018-05-08T15:28:48.229Z,34.20
2018-05-08T15:31:15.678Z,34.30
2018-05-08T15:33:43.140Z,34.70
2018-05-08T15:36:10.586Z,35.90
2018-05-08T15:38:38.071Z,36.70
2018-05-08T15:41:05.627Z,37.50
2018-05-08T15:43:32.999Z,38.30
2018-05-08T15:46:00.455Z,37.20
2018-05-08T15:48:27.936Z,37.10
2018-05-08T15:50:56.138Z,34.50
2018-05-08T15:53:23.596Z,34.30
2018-05-08T15:55:51.047Z,33.10
2018-05-08T15:58:18.619Z,31.30
2018-05-08T16:00:46.063Z,30.30
2018-05-08T16:03:13.539Z,30.60
2018-05-08T16:05:41.006Z,30.50
2018-05-08T16:08:08.449Z,31.00
2018-05-08T16:10:35.901Z,31.90
2018-05-08T16:13:03.349Z,32.10
2018-05-08T16:15:30.805Z,31.60
2018-05-08T16:17:58.278Z,31.60
2018-05-08T16:20:25.747Z,30.80
2018-05-08T16:22:53.197Z,31.70
2018-05-08T16:25:20.697Z,32.10
2018-05-08T16:27:48.147Z,32.60
2018-05-08T16:30:15.654Z,32.70
2018-05-08T16:32:43.106Z,33.20
2018-05-08T16:35:10.574Z,34.10
2018-05-08T16:37:38.044Z,34.20
2018-05-08T16:40:05.773Z,34.50
2018-05-08T16:42:32.960Z,35.30
2018-05-08T16:45:00.433Z,36.30
2018-05-08T16:47:27.900Z,36.90
2018-05-08T16:49:55.348Z,36.60
2018-05-08T16:52:22.839Z,36.00
2018-05-08T16:54:51.165Z,33.40
2018-05-08T16:57:18.633Z,33.40
2018-05-08T16:59:46.128Z,33.10
2018-05-08T17:02:13.585Z,32.30
2018-05-08T17:04:41.118Z,32.70
2018-05-08T17:07:09.287Z,31.60
2018-05-08T17:09:36.762Z,31.50
2018-05-08T17:12:04.243Z,31.40
2018-05-08T17:14:32.495Z,31.60
2018-05-08T17:16:59.943Z,31.50
2018-05-08T17:19:27.414Z,31.00
2018-05-08T17:21:54.901Z,31.10
2018-05-08T17:24:23.148Z,30.80
2018-05-08T17:26:50.622Z,30.80
2018-05-08T17:29:18.858Z,33.90
2018-05-08T17:31:47.106Z,34.90
2018-05-08T17:34:14.566Z,34.80
2018-05-08T17:36:42.022Z,35.90
2018-05-08T17:39:09.471Z,36.70
2018-05-08T17:41:36.969Z,37.30
2018-05-08T17:44:04.444Z,37.50
2018-05-08T17:46:31.897Z,38.80
2018-05-08T17:48:59.415Z,39.20
2018-05-08T17:51:26.904Z,39.10
2018-05-08T17:53:54.386Z,39.80
2018-05-08T17:56:22.645Z,41.00
2018-05-08T17:58:50.131Z,40.90
2018-05-08T18:01:18.363Z,44.30
2018-05-08T18:03:45.841Z,44.30
2018-05-08T18:06:13.302Z,46.50
2018-05-08T18:08:40.765Z,48.80
2018-05-08T18:11:08.998Z,52.00
2018-05-08T18:13:36.445Z,52.00
2018-05-08T18:16:03.930Z,53.40
2018-05-08T18:18:31.386Z,54.40
2018-05-08T18:20:58.895Z,55.20
2018-05-08T18:23:26.390Z,56.20
2018-05-08T18:25:53.857Z,56.60
2018-05-08T18:28:21.313Z,57.30
2018-05-08T18:30:48.785Z,57.70
2018-05-08T18:33:16.288Z,58.20
2018-05-08T18:35:43.733Z,58.60
2018-05-08T18:38:11.202Z,58.90
2018-05-08T18:40:38.697Z,59.10
2018-05-08T18:43:06.198Z,59.50
2018-05-08T18:45:34.470Z,60.40
2018-05-08T18:48:02.698Z,60.90
2018-05-08T18:50:30.187Z,60.80
2018-05-08T18:52:57.665Z,61.40
2018-05-08T18:55:25.163Z,61.50
2018-05-08T18:57:52.642Z,61.90
2018-05-08T19:00:21.064Z,62.30
2018-05-08T19:02:49.310Z,63.20
2018-05-08T19:05:16.795Z,63.10
2018-05-08T19:07:45.038Z,64.70
2018-05-08T19:10:12.519Z,63.90
2018-05-08T19:12:40.764Z,64.60
2018-05-08T19:18:11.168Z,64.80
2018-05-08T19:20:38.638Z,65.20
2018-05-08T19:23:06.119Z,65.70
2018-05-08T19:25:33.570Z,66.00
2018-05-08T19:28:06.816Z,66.00
2018-05-08T19:30:34.330Z,66.20
2018-05-08T19:33:01.799Z,66.40
2018-05-08T19:35:34.929Z,66.60
2018-05-08T19:38:03.990Z,66.70
2018-05-08T19:40:31.474Z,66.80
2018-05-08T19:42:59.714Z,67.40
2018-05-08T19:45:27.170Z,67.40
2018-05-08T19:47:54.636Z,67.60
2018-05-08T19:50:22.079Z,67.80
2018-05-08T19:52:49.560Z,67.80
2018-05-08T19:55:17.806Z,68.40
2018-05-08T19:57:45.278Z,68.30
2018-05-08T20:00:12.763Z,68.70
2018-05-08T20:02:41.066Z,68.90
2018-05-08T20:05:08.536Z,68.80
2018-05-08T20:07:36.006Z,69.20
2018-05-08T20:10:04.239Z,70.10
2018-05-08T20:12:31.691Z,70.10
2018-05-08T20:14:59.909Z,70.40
2018-05-08T20:17:27.359Z,70.40
2018-05-08T20:19:54.812Z,70.40
2018-05-08T20:22:22.273Z,70.60
2018-05-08T20:24:49.728Z,70.70
2018-05-08T20:27:17.188Z,70.90
2018-05-08T20:29:44.634Z,71.20
2018-05-08T20:32:12.167Z,71.30
2018-05-08T20:34:40.381Z,71.50
2018-05-08T20:37:07.885Z,71.40
2018-05-08T20:39:36.117Z,71.90
2018-05-08T20:42:03.591Z,71.80
2018-05-08T20:44:31.080Z,72.00
2018-05-08T20:46:59.340Z,72.70
2018-05-08T20:49:26.814Z,72.60
2018-05-08T20:51:55.041Z,73.30
2018-05-08T20:54:22.485Z,73.30
2018-05-08T20:56:49.966Z,73.60
2018-05-08T20:59:17.436Z,73.80
2018-05-08T21:01:44.889Z,74.30
2018-05-08T21:04:12.351Z,74.30
2018-05-08T21:06:39.828Z,75.20
2018-05-08T21:09:07.375Z,74.70
2018-05-08T21:11:34.824Z,74.80
2018-05-08T21:14:02.328Z,75.10
2018-05-08T21:16:29.773Z,75.80
2018-05-08T21:18:58.007Z,76.20
2018-05-08T21:21:25.505Z,76.20
2018-05-08T21:23:52.982Z,76.30
2018-05-08T21:26:20.496Z,76.70
2018-05-08T21:28:53.663Z,76.60
2018-05-08T21:31:21.153Z,77.00
2018-05-08T21:33:49.488Z,76.80
2018-05-08T21:36:16.996Z,76.70
2018-05-08T21:38:45.312Z,76.90
2018-05-08T21:41:12.784Z,76.90
2018-05-08T21:43:40.268Z,77.00
2018-05-08T21:46:07.729Z,77.10
2018-05-08T21:48:35.204Z,76.90
2018-05-08T21:51:03.432Z,77.00
2018-05-08T21:53:31.003Z,76.90
2018-05-08T21:55:58.492Z,76.90
2018-05-08T21:58:26.726Z,77.00
2018-05-08T22:00:54.217Z,76.90
2018-05-08T22:03:22.459Z,77.10
2018-05-08T22:05:49.899Z,77.10
2018-05-08T22:08:17.462Z,77.10
2018-05-08T22:10:44.982Z,77.20
2018-05-08T22:13:13.226Z,77.70
2018-05-08T22:15:40.676Z,77.60
2018-05-08T22:18:08.151Z,77.80
2018-05-08T22:20:36.394Z,77.70
2018-05-08T22:23:03.833Z,77.70
2018-05-08T22:25:31.297Z,77.70
2018-05-08T22:27:58.746Z,77.70
2018-05-08T22:30:26.203Z,77.80
2018-05-08T22:32:53.665Z,77.90
2018-05-08T22:35:21.120Z,77.80
2018-05-08T22:37:48.573Z,77.80
2018-05-08T22:40:16.025Z,77.80
2018-05-08T22:42:43.477Z,77.80
2018-05-08T22:45:10.939Z,77.60
2018-05-08T22:47:38.402Z,77.70
2018-05-08T22:50:05.910Z,77.40
2018-05-08T22:52:33.347Z,77.40
2018-05-08T22:55:00.860Z,77.00
2018-05-08T22:57:28.299Z,77.40
2018-05-08T22:59:55.734Z,77.50
2018-05-08T23:02:23.207Z,77.40
2018-05-08T23:04:51.589Z,77.60
2018-05-08T23:07:19.810Z,77.50
2018-05-08T23:09:47.264Z,77.50
2018-05-08T23:12:14.713Z,77.60
2018-05-08T23:14:42.166Z,77.60
2018-05-08T23:17:09.606Z,77.90
2018-05-08T23:19:37.051Z,77.90
2018-05-08T23:22:05.258Z,78.00
2018-05-08T23:24:32.709Z,77.90
2018-05-08T23:27:00.169Z,78.30
2018-05-08T23:29:27.617Z,78.50
2018-05-08T23:31:55.082Z,78.70
2018-05-08T23:34:22.527Z,78.60
2018-05-08T23:36:49.991Z,78.90
2018-05-08T23:39:17.446Z,79.60
2018-05-08T23:41:44.896Z,79.60
2018-05-08T23:44:12.349Z,79.90
2018-05-08T23:46:39.804Z,79.50
2018-05-08T23:49:08.099Z,79.40
2018-05-08T23:51:35.621Z,79.40
2018-05-08T23:54:03.914Z,80.40
2018-05-08T23:56:31.452Z,80.30
2018-05-08T23:58:58.966Z,81.70
